sensor_id;sensor_type;location;lat;lon;timestamp;temperature;humidity
790;DHT22;378;48.844;9.156;2024-02-04T00:02:07;8.40;99.90
790;DHT22;378;48.844;9.156;2024-02-04T00:04:39;8.40;99.90
790;DHT22;378;48.844;9.156;2024-02-04T00:07:06;8.40;99.90
790;DHT22;378;48.844;9.156;2024-02-04T00:09:35;8.40;99.90
790;DHT22;378;48.844;9.156;2024-02-04T00:12:02;8.50;99.90
790;DHT22;378;48.844;9.156;2024-02-04T00:14:31;8.50;99.90
790;DHT22;378;48.844;9.156;2024-02-04T00:16:58;8.40;99.90
790;DHT22;378;48.844;9.156;2024-02-04T00:19:25;8.40;99.90
790;DHT22;378;48.844;9.156;2024-02-04T00:21:53;8.30;99.90
790;DHT22;378;48.844;9.156;2024-02-04T00:24:20;8.30;99.90
790;DHT22;378;48.844;9.156;2024-02-04T00:26:48;8.20;99.90
790;DHT22;378;48.844;9.156;2024-02-04T00:29:16;8.20;99.90
790;DHT22;378;48.844;9.156;2024-02-04T00:31:43;8.20;99.90
790;DHT22;378;48.844;9.156;2024-02-04T00:34:09;8.10;99.90
790;DHT22;378;48.844;9.156;2024-02-04T00:36:36;8.00;99.90
790;DHT22;378;48.844;9.156;2024-02-04T00:39:03;8.00;99.90
790;DHT22;378;48.844;9.156;2024-02-04T00:41:30;8.00;99.90
790;DHT22;378;48.844;9.156;2024-02-04T00:43:59;8.10;99.90
790;DHT22;378;48.844;9.156;2024-02-04T00:46:26;8.10;99.90
790;DHT22;378;48.844;9.156;2024-02-04T00:48:53;8.10;99.90
790;DHT22;378;48.844;9.156;2024-02-04T00:51:20;8.20;99.90
790;DHT22;378;48.844;9.156;2024-02-04T00:53:48;8.10;99.90
790;DHT22;378;48.844;9.156;2024-02-04T00:56:15;8.20;99.90
790;DHT22;378;48.844;9.156;2024-02-04T00:58:42;8.20;99.90
790;DHT22;378;48.844;9.156;2024-02-04T01:01:10;8.10;99.90
790;DHT22;378;48.844;9.156;2024-02-04T01:03:38;8.10;99.90
790;DHT22;378;48.844;9.156;2024-02-04T01:06:05;8.10;99.90
790;DHT22;378;48.844;9.156;2024-02-04T01:08:32;8.10;99.90
790;DHT22;378;48.844;9.156;2024-02-04T01:11:00;8.10;99.90
790;DHT22;378;48.844;9.156;2024-02-04T01:13:28;8.00;99.90
790;DHT22;378;48.844;9.156;2024-02-04T01:15:55;8.00;99.90
790;DHT22;378;48.844;9.156;2024-02-04T01:18:23;8.00;99.90
790;DHT22;378;48.844;9.156;2024-02-04T01:20:50;8.00;99.90
790;DHT22;378;48.844;9.156;2024-02-04T01:23:17;8.00;99.90
790;DHT22;378;48.844;9.156;2024-02-04T01:25:45;8.00;99.90
790;DHT22;378;48.844;9.156;2024-02-04T01:28:12;8.00;99.90
790;DHT22;378;48.844;9.156;2024-02-04T01:30:39;8.00;99.90
790;DHT22;378;48.844;9.156;2024-02-04T01:33:06;8.00;99.90
790;DHT22;378;48.844;9.156;2024-02-04T01:35:35;8.00;99.90
790;DHT22;378;48.844;9.156;2024-02-04T01:38:02;8.00;99.90
790;DHT22;378;48.844;9.156;2024-02-04T01:40:29;8.00;99.90
790;DHT22;378;48.844;9.156;2024-02-04T01:42:56;7.90;99.90
790;DHT22;378;48.844;9.156;2024-02-04T01:45:23;7.90;99.90
790;DHT22;378;48.844;9.156;2024-02-04T01:47:51;8.00;99.90
790;DHT22;378;48.844;9.156;2024-02-04T01:50:18;7.90;99.90
790;DHT22;378;48.844;9.156;2024-02-04T01:52:47;8.00;99.90
790;DHT22;378;48.844;9.156;2024-02-04T01:55:15;8.00;99.90
790;DHT22;378;48.844;9.156;2024-02-04T01:57:42;8.00;99.90
790;DHT22;378;48.844;9.156;2024-02-04T02:00:10;8.10;99.90
790;DHT22;378;48.844;9.156;2024-02-04T02:02:40;8.10;99.90
790;DHT22;378;48.844;9.156;2024-02-04T02:05:07;8.10;99.90
790;DHT22;378;48.844;9.156;2024-02-04T02:07:35;8.10;99.90
790;DHT22;378;48.844;9.156;2024-02-04T02:10:03;8.10;99.90
790;DHT22;378;48.844;9.156;2024-02-04T02:12:37;8.10;99.90
790;DHT22;378;48.844;9.156;2024-02-04T02:15:11;8.10;99.90
790;DHT22;378;48.844;9.156;2024-02-04T02:17:44;8.10;99.90
790;DHT22;378;48.844;9.156;2024-02-04T02:20:20;8.10;99.90
790;DHT22;378;48.844;9.156;2024-02-04T02:22:49;8.10;99.90
790;DHT22;378;48.844;9.156;2024-02-04T02:25:20;8.20;99.90
790;DHT22;378;48.844;9.156;2024-02-04T02:27:48;8.10;99.90
790;DHT22;378;48.844;9.156;2024-02-04T02:30:16;8.00;99.90
790;DHT22;378;48.844;9.156;2024-02-04T02:32:44;8.00;99.90
790;DHT22;378;48.844;9.156;2024-02-04T02:35:12;8.00;99.90
790;DHT22;378;48.844;9.156;2024-02-04T02:37:43;8.10;99.90
790;DHT22;378;48.844;9.156;2024-02-04T02:40:17;8.10;99.90
790;DHT22;378;48.844;9.156;2024-02-04T02:42:51;8.10;99.90
790;DHT22;378;48.844;9.156;2024-02-04T02:45:20;8.10;99.90
790;DHT22;378;48.844;9.156;2024-02-04T02:47:49;8.20;99.90
790;DHT22;378;48.844;9.156;2024-02-04T02:50:16;8.30;99.90
790;DHT22;378;48.844;9.156;2024-02-04T02:52:44;8.30;99.90
790;DHT22;378;48.844;9.156;2024-02-04T02:55:11;8.30;99.90
790;DHT22;378;48.844;9.156;2024-02-04T02:57:38;8.20;99.90
790;DHT22;378;48.844;9.156;2024-02-04T03:00:07;8.20;99.90
790;DHT22;378;48.844;9.156;2024-02-04T03:02:34;8.20;99.90
790;DHT22;378;48.844;9.156;2024-02-04T03:05:02;8.10;99.90
790;DHT22;378;48.844;9.156;2024-02-04T03:07:29;8.10;99.90
790;DHT22;378;48.844;9.156;2024-02-04T03:09:56;8.00;99.90
790;DHT22;378;48.844;9.156;2024-02-04T03:12:23;8.00;99.90
790;DHT22;378;48.844;9.156;2024-02-04T03:14:50;8.00;99.90
790;DHT22;378;48.844;9.156;2024-02-04T03:17:18;8.00;99.90
790;DHT22;378;48.844;9.156;2024-02-04T03:19:47;8.00;99.90
790;DHT22;378;48.844;9.156;2024-02-04T03:22:14;8.10;99.90
790;DHT22;378;48.844;9.156;2024-02-04T03:24:41;8.00;99.90
790;DHT22;378;48.844;9.156;2024-02-04T03:27:08;8.10;99.90
790;DHT22;378;48.844;9.156;2024-02-04T03:29:35;8.10;99.90
790;DHT22;378;48.844;9.156;2024-02-04T03:32:03;8.10;99.90
790;DHT22;378;48.844;9.156;2024-02-04T03:34:31;8.10;99.90
790;DHT22;378;48.844;9.156;2024-02-04T03:36:59;8.10;99.90
790;DHT22;378;48.844;9.156;2024-02-04T03:39:26;8.10;99.90
790;DHT22;378;48.844;9.156;2024-02-04T03:41:53;8.10;99.90
790;DHT22;378;48.844;9.156;2024-02-04T03:44:20;8.10;99.90
790;DHT22;378;48.844;9.156;2024-02-04T03:46:48;8.10;99.90
790;DHT22;378;48.844;9.156;2024-02-04T03:49:15;8.00;99.90
790;DHT22;378;48.844;9.156;2024-02-04T03:51:44;8.00;99.90
790;DHT22;378;48.844;9.156;2024-02-04T03:54:11;8.00;99.90
790;DHT22;378;48.844;9.156;2024-02-04T03:56:38;8.00;99.90
790;DHT22;378;48.844;9.156;2024-02-04T03:59:07;8.00;99.90
790;DHT22;378;48.844;9.156;2024-02-04T04:01:36;8.00;99.90
790;DHT22;378;48.844;9.156;2024-02-04T04:04:04;8.00;99.90
790;DHT22;378;48.844;9.156;2024-02-04T04:06:31;7.90;99.90
790;DHT22;378;48.844;9.156;2024-02-04T04:09:02;8.00;99.90
790;DHT22;378;48.844;9.156;2024-02-04T04:11:29;8.10;99.90
790;DHT22;378;48.844;9.156;2024-02-04T04:13:56;8.10;99.90
790;DHT22;378;48.844;9.156;2024-02-04T04:16:23;8.20;99.90
790;DHT22;378;48.844;9.156;2024-02-04T04:18:50;8.20;99.90
790;DHT22;378;48.844;9.156;2024-02-04T04:21:17;8.30;99.90
790;DHT22;378;48.844;9.156;2024-02-04T04:23:44;8.20;99.90
790;DHT22;378;48.844;9.156;2024-02-04T04:26:13;8.10;99.90
790;DHT22;378;48.844;9.156;2024-02-04T04:28:40;8.10;99.90
790;DHT22;378;48.844;9.156;2024-02-04T04:31:07;8.10;99.90
790;DHT22;378;48.844;9.156;2024-02-04T04:33:35;8.20;99.90
790;DHT22;378;48.844;9.156;2024-02-04T04:36:02;8.20;99.90
790;DHT22;378;48.844;9.156;2024-02-04T04:38:29;8.20;99.90
790;DHT22;378;48.844;9.156;2024-02-04T04:40:56;8.20;99.90
790;DHT22;378;48.844;9.156;2024-02-04T04:43:25;8.20;99.90
790;DHT22;378;48.844;9.156;2024-02-04T04:45:53;8.20;99.90
790;DHT22;378;48.844;9.156;2024-02-04T04:48:19;8.20;99.90
790;DHT22;378;48.844;9.156;2024-02-04T04:50:46;8.30;99.90
790;DHT22;378;48.844;9.156;2024-02-04T04:53:13;8.30;99.90
790;DHT22;378;48.844;9.156;2024-02-04T04:55:40;8.20;99.90
790;DHT22;378;48.844;9.156;2024-02-04T04:58:07;8.30;99.90
790;DHT22;378;48.844;9.156;2024-02-04T05:00:35;8.30;99.90
790;DHT22;378;48.844;9.156;2024-02-04T05:03:03;8.30;99.90
790;DHT22;378;48.844;9.156;2024-02-04T05:05:30;8.30;99.90
790;DHT22;378;48.844;9.156;2024-02-04T05:07:57;8.30;99.90
790;DHT22;378;48.844;9.156;2024-02-04T05:10:24;8.20;99.90
790;DHT22;378;48.844;9.156;2024-02-04T05:12:51;8.30;99.90
790;DHT22;378;48.844;9.156;2024-02-04T05:15:18;8.20;99.90
790;DHT22;378;48.844;9.156;2024-02-04T05:17:48;8.20;99.90
790;DHT22;378;48.844;9.156;2024-02-04T05:20:15;8.20;99.90
790;DHT22;378;48.844;9.156;2024-02-04T05:22:42;8.30;99.90
790;DHT22;378;48.844;9.156;2024-02-04T05:25:09;8.30;99.90
790;DHT22;378;48.844;9.156;2024-02-04T05:27:36;8.30;99.90
790;DHT22;378;48.844;9.156;2024-02-04T05:30:04;8.20;99.90
790;DHT22;378;48.844;9.156;2024-02-04T05:32:31;8.20;99.90
790;DHT22;378;48.844;9.156;2024-02-04T05:35:00;8.20;99.90
790;DHT22;378;48.844;9.156;2024-02-04T05:37:27;8.30;99.90
790;DHT22;378;48.844;9.156;2024-02-04T05:39:54;8.30;99.90
790;DHT22;378;48.844;9.156;2024-02-04T05:42:20;8.30;99.90
790;DHT22;378;48.844;9.156;2024-02-04T05:44:47;8.30;99.90
790;DHT22;378;48.844;9.156;2024-02-04T05:47:15;8.30;99.90
790;DHT22;378;48.844;9.156;2024-02-04T05:49:42;8.30;99.90
790;DHT22;378;48.844;9.156;2024-02-04T05:52:11;8.40;99.90
790;DHT22;378;48.844;9.156;2024-02-04T05:54:39;8.40;99.90
790;DHT22;378;48.844;9.156;2024-02-04T05:57:06;8.50;99.90
790;DHT22;378;48.844;9.156;2024-02-04T05:59:33;8.50;99.90
790;DHT22;378;48.844;9.156;2024-02-04T06:02:00;8.60;99.90
790;DHT22;378;48.844;9.156;2024-02-04T06:04:27;8.50;99.90
790;DHT22;378;48.844;9.156;2024-02-04T06:06:54;8.50;99.90
790;DHT22;378;48.844;9.156;2024-02-04T06:09:22;8.50;99.90
790;DHT22;378;48.844;9.156;2024-02-04T06:11:49;8.50;99.90
790;DHT22;378;48.844;9.156;2024-02-04T06:14:16;8.60;99.90
790;DHT22;378;48.844;9.156;2024-02-04T06:16:43;8.60;99.90
790;DHT22;378;48.844;9.156;2024-02-04T06:19:10;8.60;99.90
790;DHT22;378;48.844;9.156;2024-02-04T06:21:38;8.60;99.90
790;DHT22;378;48.844;9.156;2024-02-04T06:24:06;8.60;99.90
790;DHT22;378;48.844;9.156;2024-02-04T06:26:37;8.60;99.90
790;DHT22;378;48.844;9.156;2024-02-04T06:29:04;8.60;99.90
790;DHT22;378;48.844;9.156;2024-02-04T06:31:32;8.60;99.90
790;DHT22;378;48.844;9.156;2024-02-04T06:34:01;8.60;99.90
790;DHT22;378;48.844;9.156;2024-02-04T06:36:30;8.50;99.90
790;DHT22;378;48.844;9.156;2024-02-04T06:38:57;8.50;99.90
790;DHT22;378;48.844;9.156;2024-02-04T06:41:26;8.60;99.90
790;DHT22;378;48.844;9.156;2024-02-04T06:43:54;8.50;99.90
790;DHT22;378;48.844;9.156;2024-02-04T06:46:25;8.40;99.90
790;DHT22;378;48.844;9.156;2024-02-04T06:48:52;8.50;99.90
790;DHT22;378;48.844;9.156;2024-02-04T06:51:19;8.40;99.90
790;DHT22;378;48.844;9.156;2024-02-04T06:53:47;8.50;99.90
790;DHT22;378;48.844;9.156;2024-02-04T06:56:14;8.50;99.90
790;DHT22;378;48.844;9.156;2024-02-04T06:58:41;8.40;99.90
790;DHT22;378;48.844;9.156;2024-02-04T07:01:10;8.50;99.90
790;DHT22;378;48.844;9.156;2024-02-04T07:03:37;8.50;99.90
790;DHT22;378;48.844;9.156;2024-02-04T07:06:05;8.50;99.90
790;DHT22;378;48.844;9.156;2024-02-04T07:08:32;8.50;99.90
790;DHT22;378;48.844;9.156;2024-02-04T07:10:59;8.50;99.90
790;DHT22;378;48.844;9.156;2024-02-04T07:13:29;8.50;99.90
790;DHT22;378;48.844;9.156;2024-02-04T07:15:56;8.50;99.90
790;DHT22;378;48.844;9.156;2024-02-04T07:18:24;8.40;99.90
790;DHT22;378;48.844;9.156;2024-02-04T07:20:51;8.40;99.90
790;DHT22;378;48.844;9.156;2024-02-04T07:23:19;8.50;99.90
790;DHT22;378;48.844;9.156;2024-02-04T07:25:46;8.40;99.90
790;DHT22;378;48.844;9.156;2024-02-04T07:28:12;8.40;99.90
790;DHT22;378;48.844;9.156;2024-02-04T07:30:39;8.40;99.90
790;DHT22;378;48.844;9.156;2024-02-04T07:33:06;8.40;99.90
790;DHT22;378;48.844;9.156;2024-02-04T07:35:35;8.40;99.90
790;DHT22;378;48.844;9.156;2024-02-04T07:38:02;8.40;99.90
790;DHT22;378;48.844;9.156;2024-02-04T07:40:29;8.40;99.90
790;DHT22;378;48.844;9.156;2024-02-04T07:42:57;8.40;99.90
790;DHT22;378;48.844;9.156;2024-02-04T07:45:24;8.40;99.90
790;DHT22;378;48.844;9.156;2024-02-04T07:47:51;8.40;99.90
790;DHT22;378;48.844;9.156;2024-02-04T07:50:17;8.50;99.90
790;DHT22;378;48.844;9.156;2024-02-04T07:52:46;8.70;99.90
790;DHT22;378;48.844;9.156;2024-02-04T07:55:13;8.60;99.90
790;DHT22;378;48.844;9.156;2024-02-04T07:57:40;8.60;99.90
790;DHT22;378;48.844;9.156;2024-02-04T08:00:08;8.60;99.90
790;DHT22;378;48.844;9.156;2024-02-04T08:02:36;8.60;99.90
790;DHT22;378;48.844;9.156;2024-02-04T08:05:04;8.70;99.90
790;DHT22;378;48.844;9.156;2024-02-04T08:07:31;8.70;99.90
790;DHT22;378;48.844;9.156;2024-02-04T08:09:59;8.80;99.90
790;DHT22;378;48.844;9.156;2024-02-04T08:12:26;8.80;99.90
790;DHT22;378;48.844;9.156;2024-02-04T08:14:53;8.80;99.90
790;DHT22;378;48.844;9.156;2024-02-04T08:17:20;8.80;99.90
790;DHT22;378;48.844;9.156;2024-02-04T08:19:47;8.80;99.90
790;DHT22;378;48.844;9.156;2024-02-04T08:22:14;8.90;99.90
790;DHT22;378;48.844;9.156;2024-02-04T08:24:43;9.00;99.90
790;DHT22;378;48.844;9.156;2024-02-04T08:27:12;8.90;99.90
790;DHT22;378;48.844;9.156;2024-02-04T08:29:41;8.90;99.90
790;DHT22;378;48.844;9.156;2024-02-04T08:32:08;9.00;99.90
790;DHT22;378;48.844;9.156;2024-02-04T08:34:35;9.10;99.90
790;DHT22;378;48.844;9.156;2024-02-04T08:37:02;9.00;99.90
790;DHT22;378;48.844;9.156;2024-02-04T08:39:30;9.00;99.90
790;DHT22;378;48.844;9.156;2024-02-04T08:41:57;9.10;99.90
790;DHT22;378;48.844;9.156;2024-02-04T08:44:25;9.20;99.90
790;DHT22;378;48.844;9.156;2024-02-04T08:46:52;9.30;99.90
790;DHT22;378;48.844;9.156;2024-02-04T08:49:19;9.30;99.90
790;DHT22;378;48.844;9.156;2024-02-04T08:51:46;9.30;99.90
790;DHT22;378;48.844;9.156;2024-02-04T08:54:13;9.20;99.90
790;DHT22;378;48.844;9.156;2024-02-04T08:56:40;9.20;99.90
790;DHT22;378;48.844;9.156;2024-02-04T08:59:07;9.20;99.90
790;DHT22;378;48.844;9.156;2024-02-04T09:01:36;9.30;99.90
790;DHT22;378;48.844;9.156;2024-02-04T09:04:03;9.30;99.90
790;DHT22;378;48.844;9.156;2024-02-04T09:06:30;9.30;99.90
790;DHT22;378;48.844;9.156;2024-02-04T09:08:57;9.30;99.90
790;DHT22;378;48.844;9.156;2024-02-04T09:11:24;9.40;99.90
790;DHT22;378;48.844;9.156;2024-02-04T09:13:51;9.50;99.90
790;DHT22;378;48.844;9.156;2024-02-04T09:16:18;9.50;99.90
790;DHT22;378;48.844;9.156;2024-02-04T09:18:46;9.60;99.90
790;DHT22;378;48.844;9.156;2024-02-04T09:21:13;9.60;99.90
790;DHT22;378;48.844;9.156;2024-02-04T09:23:45;9.60;99.90
790;DHT22;378;48.844;9.156;2024-02-04T09:26:26;9.60;99.90
790;DHT22;378;48.844;9.156;2024-02-04T09:28:53;9.70;99.90
790;DHT22;378;48.844;9.156;2024-02-04T09:31:20;9.70;99.90
790;DHT22;378;48.844;9.156;2024-02-04T09:33:49;9.60;99.90
790;DHT22;378;48.844;9.156;2024-02-04T09:36:16;9.60;99.90
790;DHT22;378;48.844;9.156;2024-02-04T09:38:43;9.50;99.90
790;DHT22;378;48.844;9.156;2024-02-04T09:41:10;9.50;99.90
790;DHT22;378;48.844;9.156;2024-02-04T09:43:37;9.50;99.90
790;DHT22;378;48.844;9.156;2024-02-04T09:46:05;9.50;99.90
790;DHT22;378;48.844;9.156;2024-02-04T09:48:33;9.60;99.90
790;DHT22;378;48.844;9.156;2024-02-04T09:51:04;9.70;99.90
790;DHT22;378;48.844;9.156;2024-02-04T09:53:33;9.70;99.90
790;DHT22;378;48.844;9.156;2024-02-04T09:56:01;9.80;99.90
790;DHT22;378;48.844;9.156;2024-02-04T09:58:29;9.80;99.90
790;DHT22;378;48.844;9.156;2024-02-04T10:00:55;9.80;99.90
790;DHT22;378;48.844;9.156;2024-02-04T10:03:23;9.90;99.90
790;DHT22;378;48.844;9.156;2024-02-04T10:05:50;9.90;99.90
790;DHT22;378;48.844;9.156;2024-02-04T10:08:19;10.00;99.90
790;DHT22;378;48.844;9.156;2024-02-04T10:10:47;10.00;99.90
790;DHT22;378;48.844;9.156;2024-02-04T10:13:14;10.00;99.90
790;DHT22;378;48.844;9.156;2024-02-04T10:15:41;10.00;99.90
790;DHT22;378;48.844;9.156;2024-02-04T10:18:08;10.10;99.90
790;DHT22;378;48.844;9.156;2024-02-04T10:20:36;10.20;99.90
790;DHT22;378;48.844;9.156;2024-02-04T10:23:03;10.30;99.90
790;DHT22;378;48.844;9.156;2024-02-04T10:25:32;10.30;99.90
790;DHT22;378;48.844;9.156;2024-02-04T10:27:59;10.30;99.90
790;DHT22;378;48.844;9.156;2024-02-04T10:30:26;10.30;99.90
790;DHT22;378;48.844;9.156;2024-02-04T10:32:54;10.40;99.90
790;DHT22;378;48.844;9.156;2024-02-04T10:35:21;10.50;99.90
790;DHT22;378;48.844;9.156;2024-02-04T10:37:49;10.50;99.90
790;DHT22;378;48.844;9.156;2024-02-04T10:40:17;10.50;99.90
790;DHT22;378;48.844;9.156;2024-02-04T10:42:46;10.50;99.90
790;DHT22;378;48.844;9.156;2024-02-04T10:45:17;10.60;99.90
790;DHT22;378;48.844;9.156;2024-02-04T10:47:49;10.70;99.90
790;DHT22;378;48.844;9.156;2024-02-04T10:50:20;10.70;99.90
790;DHT22;378;48.844;9.156;2024-02-04T10:52:48;10.80;99.90
790;DHT22;378;48.844;9.156;2024-02-04T10:55:17;10.80;99.90
790;DHT22;378;48.844;9.156;2024-02-04T10:57:48;10.90;99.90
790;DHT22;378;48.844;9.156;2024-02-04T11:00:17;10.90;99.90
790;DHT22;378;48.844;9.156;2024-02-04T11:02:46;10.90;99.90
790;DHT22;378;48.844;9.156;2024-02-04T11:05:15;10.90;99.90
790;DHT22;378;48.844;9.156;2024-02-04T11:07:43;10.70;99.90
790;DHT22;378;48.844;9.156;2024-02-04T11:10:11;10.70;99.90
790;DHT22;378;48.844;9.156;2024-02-04T11:12:40;10.80;99.90
790;DHT22;378;48.844;9.156;2024-02-04T11:15:10;10.90;99.90
790;DHT22;378;48.844;9.156;2024-02-04T11:18:15;11.00;99.90
790;DHT22;378;48.844;9.156;2024-02-04T11:21:08;11.10;99.90
790;DHT22;378;48.844;9.156;2024-02-04T11:23:45;11.30;99.90
790;DHT22;378;48.844;9.156;2024-02-04T11:26:15;11.40;99.90
790;DHT22;378;48.844;9.156;2024-02-04T11:28:43;11.50;99.90
790;DHT22;378;48.844;9.156;2024-02-04T11:31:15;11.40;99.90
790;DHT22;378;48.844;9.156;2024-02-04T11:33:44;11.30;99.90
790;DHT22;378;48.844;9.156;2024-02-04T11:36:13;11.10;99.90
790;DHT22;378;48.844;9.156;2024-02-04T11:38:41;11.00;99.90
790;DHT22;378;48.844;9.156;2024-02-04T11:41:08;10.90;99.90
790;DHT22;378;48.844;9.156;2024-02-04T11:43:36;10.90;99.90
790;DHT22;378;48.844;9.156;2024-02-04T11:46:04;10.80;99.90
790;DHT22;378;48.844;9.156;2024-02-04T11:48:34;10.80;99.90
790;DHT22;378;48.844;9.156;2024-02-04T11:51:04;10.90;99.90
790;DHT22;378;48.844;9.156;2024-02-04T11:53:31;10.90;99.90
790;DHT22;378;48.844;9.156;2024-02-04T11:55:59;11.00;99.90
790;DHT22;378;48.844;9.156;2024-02-04T11:58:29;11.00;99.90
790;DHT22;378;48.844;9.156;2024-02-04T12:00:57;11.00;99.90
790;DHT22;378;48.844;9.156;2024-02-04T12:03:31;11.00;99.90
790;DHT22;378;48.844;9.156;2024-02-04T12:05:59;10.90;99.90
790;DHT22;378;48.844;9.156;2024-02-04T12:08:29;10.80;99.90
790;DHT22;378;48.844;9.156;2024-02-04T12:10:56;10.80;99.90
790;DHT22;378;48.844;9.156;2024-02-04T12:13:24;10.70;99.90
790;DHT22;378;48.844;9.156;2024-02-04T12:15:51;10.80;99.90
790;DHT22;378;48.844;9.156;2024-02-04T12:18:18;10.80;99.90
790;DHT22;378;48.844;9.156;2024-02-04T12:20:47;10.70;99.90
790;DHT22;378;48.844;9.156;2024-02-04T12:23:17;10.70;99.90
790;DHT22;378;48.844;9.156;2024-02-04T12:25:45;10.70;99.90
790;DHT22;378;48.844;9.156;2024-02-04T12:28:14;10.70;99.90
790;DHT22;378;48.844;9.156;2024-02-04T12:30:41;10.70;99.90
790;DHT22;378;48.844;9.156;2024-02-04T12:33:19;10.70;99.90
790;DHT22;378;48.844;9.156;2024-02-04T12:35:49;10.70;99.90
790;DHT22;378;48.844;9.156;2024-02-04T12:38:18;10.70;99.90
790;DHT22;378;48.844;9.156;2024-02-04T12:40:45;10.80;99.90
790;DHT22;378;48.844;9.156;2024-02-04T12:43:12;10.80;99.90
790;DHT22;378;48.844;9.156;2024-02-04T12:45:39;10.80;99.90
790;DHT22;378;48.844;9.156;2024-02-04T12:48:07;10.90;99.90
790;DHT22;378;48.844;9.156;2024-02-04T12:50:37;11.00;99.90
790;DHT22;378;48.844;9.156;2024-02-04T12:53:06;11.00;99.90
790;DHT22;378;48.844;9.156;2024-02-04T12:55:35;11.00;99.90
790;DHT22;378;48.844;9.156;2024-02-04T12:58:04;11.10;99.90
790;DHT22;378;48.844;9.156;2024-02-04T13:00:31;11.10;99.90
790;DHT22;378;48.844;9.156;2024-02-04T13:02:59;11.20;99.90
790;DHT22;378;48.844;9.156;2024-02-04T13:05:26;11.30;99.90
790;DHT22;378;48.844;9.156;2024-02-04T13:07:56;11.40;99.90
790;DHT22;378;48.844;9.156;2024-02-04T13:10:24;11.40;99.90
790;DHT22;378;48.844;9.156;2024-02-04T13:13:00;11.50;99.90
790;DHT22;378;48.844;9.156;2024-02-04T13:15:27;11.40;99.90
790;DHT22;378;48.844;9.156;2024-02-04T13:17:55;11.40;99.90
790;DHT22;378;48.844;9.156;2024-02-04T13:20:22;11.40;99.90
790;DHT22;378;48.844;9.156;2024-02-04T13:22:49;11.30;99.90
790;DHT22;378;48.844;9.156;2024-02-04T13:25:16;11.30;99.90
790;DHT22;378;48.844;9.156;2024-02-04T13:27:43;11.20;99.90
790;DHT22;378;48.844;9.156;2024-02-04T13:30:12;11.10;99.90
790;DHT22;378;48.844;9.156;2024-02-04T13:32:39;11.10;99.90
790;DHT22;378;48.844;9.156;2024-02-04T13:35:08;11.00;99.90
790;DHT22;378;48.844;9.156;2024-02-04T13:37:36;11.10;99.90
790;DHT22;378;48.844;9.156;2024-02-04T13:40:04;11.10;99.90
790;DHT22;378;48.844;9.156;2024-02-04T13:42:32;11.10;99.90
790;DHT22;378;48.844;9.156;2024-02-04T13:45:00;11.00;99.90
790;DHT22;378;48.844;9.156;2024-02-04T13:47:29;11.00;99.90
790;DHT22;378;48.844;9.156;2024-02-04T13:49:56;11.10;99.90
790;DHT22;378;48.844;9.156;2024-02-04T13:52:23;11.10;99.90
790;DHT22;378;48.844;9.156;2024-02-04T13:54:50;11.10;99.90
790;DHT22;378;48.844;9.156;2024-02-04T13:57:17;11.20;99.90
790;DHT22;378;48.844;9.156;2024-02-04T13:59:44;11.20;99.90
790;DHT22;378;48.844;9.156;2024-02-04T14:02:11;11.20;99.90
790;DHT22;378;48.844;9.156;2024-02-04T14:04:40;11.20;99.90
790;DHT22;378;48.844;9.156;2024-02-04T14:07:08;11.30;99.90
790;DHT22;378;48.844;9.156;2024-02-04T14:09:35;11.20;99.90
790;DHT22;378;48.844;9.156;2024-02-04T14:12:03;11.30;99.90
790;DHT22;378;48.844;9.156;2024-02-04T14:14:30;11.30;99.90
790;DHT22;378;48.844;9.156;2024-02-04T14:16:57;11.20;99.90
790;DHT22;378;48.844;9.156;2024-02-04T14:19:24;11.20;99.90
790;DHT22;378;48.844;9.156;2024-02-04T14:21:52;11.20;99.90
790;DHT22;378;48.844;9.156;2024-02-04T14:24:20;11.30;99.90
790;DHT22;378;48.844;9.156;2024-02-04T14:26:47;11.20;99.90
790;DHT22;378;48.844;9.156;2024-02-04T14:29:14;11.00;99.90
790;DHT22;378;48.844;9.156;2024-02-04T14:31:42;11.00;99.90
790;DHT22;378;48.844;9.156;2024-02-04T14:34:09;11.00;99.90
790;DHT22;378;48.844;9.156;2024-02-04T14:36:36;11.00;99.90
790;DHT22;378;48.844;9.156;2024-02-04T14:39:04;10.90;99.90
790;DHT22;378;48.844;9.156;2024-02-04T14:41:34;11.00;99.90
790;DHT22;378;48.844;9.156;2024-02-04T14:44:02;11.00;99.90
790;DHT22;378;48.844;9.156;2024-02-04T14:46:30;11.00;99.90
790;DHT22;378;48.844;9.156;2024-02-04T14:48:56;11.00;99.90
790;DHT22;378;48.844;9.156;2024-02-04T14:51:24;11.00;99.90
790;DHT22;378;48.844;9.156;2024-02-04T14:53:51;11.00;99.90
790;DHT22;378;48.844;9.156;2024-02-04T14:56:19;11.00;99.90
790;DHT22;378;48.844;9.156;2024-02-04T14:58:46;11.00;99.90
790;DHT22;378;48.844;9.156;2024-02-04T15:01:13;10.90;99.90
790;DHT22;378;48.844;9.156;2024-02-04T15:03:40;10.90;99.90
790;DHT22;378;48.844;9.156;2024-02-04T15:06:07;10.90;99.90
790;DHT22;378;48.844;9.156;2024-02-04T15:08:34;10.80;99.90
790;DHT22;378;48.844;9.156;2024-02-04T15:11:01;10.70;99.90
790;DHT22;378;48.844;9.156;2024-02-04T15:13:30;10.70;99.90
790;DHT22;378;48.844;9.156;2024-02-04T15:15:58;10.70;99.90
790;DHT22;378;48.844;9.156;2024-02-04T15:18:26;10.70;99.90
790;DHT22;378;48.844;9.156;2024-02-04T15:20:53;10.70;99.90
790;DHT22;378;48.844;9.156;2024-02-04T15:23:21;10.70;99.90
790;DHT22;378;48.844;9.156;2024-02-04T15:25:48;10.70;99.90
790;DHT22;378;48.844;9.156;2024-02-04T15:28:16;10.60;99.90
790;DHT22;378;48.844;9.156;2024-02-04T15:30:45;10.60;99.90
790;DHT22;378;48.844;9.156;2024-02-04T15:33:12;10.60;99.90
790;DHT22;378;48.844;9.156;2024-02-04T15:35:40;10.60;99.90
790;DHT22;378;48.844;9.156;2024-02-04T15:38:07;10.50;99.90
790;DHT22;378;48.844;9.156;2024-02-04T15:40:34;10.50;99.90
790;DHT22;378;48.844;9.156;2024-02-04T15:43:02;10.50;99.90
790;DHT22;378;48.844;9.156;2024-02-04T15:45:30;10.50;99.90
790;DHT22;378;48.844;9.156;2024-02-04T15:48:03;10.40;99.90
790;DHT22;378;48.844;9.156;2024-02-04T15:50:31;10.40;99.90
790;DHT22;378;48.844;9.156;2024-02-04T15:52:58;10.30;99.90
790;DHT22;378;48.844;9.156;2024-02-04T15:55:26;10.30;99.90
790;DHT22;378;48.844;9.156;2024-02-04T15:57:53;10.30;99.90
790;DHT22;378;48.844;9.156;2024-02-04T16:00:22;10.30;99.90
790;DHT22;378;48.844;9.156;2024-02-04T16:02:51;10.20;99.90
790;DHT22;378;48.844;9.156;2024-02-04T16:05:21;10.30;99.90
790;DHT22;378;48.844;9.156;2024-02-04T16:07:49;10.30;99.90
790;DHT22;378;48.844;9.156;2024-02-04T16:10:18;10.30;99.90
790;DHT22;378;48.844;9.156;2024-02-04T16:12:53;10.30;99.90
790;DHT22;378;48.844;9.156;2024-02-04T16:15:23;10.30;99.90
790;DHT22;378;48.844;9.156;2024-02-04T16:17:51;10.20;99.90
790;DHT22;378;48.844;9.156;2024-02-04T16:20:20;10.10;99.90
790;DHT22;378;48.844;9.156;2024-02-04T16:22:48;10.00;99.90
790;DHT22;378;48.844;9.156;2024-02-04T16:25:16;9.90;99.90
790;DHT22;378;48.844;9.156;2024-02-04T16:27:43;9.90;99.90
790;DHT22;378;48.844;9.156;2024-02-04T16:30:12;10.00;99.90
790;DHT22;378;48.844;9.156;2024-02-04T16:32:39;9.90;99.90
790;DHT22;378;48.844;9.156;2024-02-04T16:35:07;9.90;99.90
790;DHT22;378;48.844;9.156;2024-02-04T16:37:36;9.90;99.90
790;DHT22;378;48.844;9.156;2024-02-04T16:40:04;9.80;99.90
790;DHT22;378;48.844;9.156;2024-02-04T16:42:31;9.70;99.90
790;DHT22;378;48.844;9.156;2024-02-04T16:45:01;9.70;99.90
790;DHT22;378;48.844;9.156;2024-02-04T16:47:29;9.70;99.90
790;DHT22;378;48.844;9.156;2024-02-04T16:49:57;9.60;99.90